Saturday, September 21, 2019, 2:08 PM EDT
Back to Local

K1V4, St Johnsbury Fairbanks

Location: Saint Johnsbury, VT, United States Lat: 44.417
Local Time: 2:08 PM EDT (18:08 GMT) Lon: -72.017
Time Zone: US/Eastern Elev: 695 ft

Show me the last for .
Show Coded

Time T Td Feel RH Dir Speed Gust Alt SLP Vis Weather Sky Remarks
2019-09-21 13:54 78 60 80 54 - - - 30.15 30.13 0 6-hr Min Temp (2pm): 48.9°F
6-hr Max Temp (2pm): 78.1°F
2019-09-21 12:54 75 59 78 57 - - - 30.18 30.16 0 None
2019-09-21 11:54 73 58 77 59 - - - 30.20 30.18 0 None
2019-09-21 10:54 67 56 - 67 - - - 30.21 30.20 0 None
2019-09-21 09:54 60 53 - 77 - - - 30.24 30.23 0 None
2019-09-21 08:54 54 50 - 86 - - - 30.24 30.24 0 None
2019-09-21 07:54 49 47 - 92 - - - 30.23 30.22 0 6-hr Min Temp (8am): 46.9°F
6-hr Max Temp (8am): 51.1°F
2019-09-21 06:54 48 47 - 96 - - - 30.22 30.21 0 None
2019-09-21 05:54 48 47 - 96 - - - 30.21 30.19 0 None
2019-09-21 04:54 48 48 - 100 - - - 30.19 30.17 0 None
2019-09-21 03:54 49 48 - 96 - - - 30.18 30.16 0 None
2019-09-21 02:54 50 49 - 96 - - - 30.17 30.16 0 None
2019-09-21 01:54 51 50 - 96 - - - 30.16 30.14 0 6-hr Min Temp (2am): 51.1°F
6-hr Max Temp (2am): 60.1°F
2019-09-21 00:54 51 50 - 96 - - - 30.17 30.15 0 24-hr Min Temp (1am): 39.0°F
24-hr Max Temp (1am): 77.0°F
2019-09-20 23:54 52 51 - 96 - - - 30.16 30.15 0 None
2019-09-20 22:54 53 51 - 92 - - - 30.16 30.15 0 None
2019-09-20 21:54 55 52 - 89 - - - 30.15 30.15 0 None
2019-09-20 20:54 57 53 - 86 - - - 30.14 30.14 0 None
2019-09-20 19:54 60 54 - 80 - - - 30.12 30.12 0 6-hr Min Temp (8pm): 60.1°F
6-hr Max Temp (8pm): 77.0°F
2019-09-20 18:54 64 52 - 64 - - - 30.11 30.11 0 None
2019-09-20 17:54 70 50 - 49 - - - 30.11 30.10 0 None
2019-09-20 16:54 74 48 - 39 - - - 30.10 30.09 0 None
2019-09-20 15:54 76 50 77 40 - - - 30.10 30.09 0 None
2019-09-20 14:54 74 53 77 48 - - - 30.10 30.09 0 None

Support USWX by starting your Amazon purchase here.